sensor_id;sensor_type;location;lat;lon;timestamp;pressure;altitude;pressure_sealevel;temperature;humidity
46682;BME280;34101;53.430;-2.224;2023-05-29T00:00:56;102506.65;;;12.89;59.57
46682;BME280;34101;53.430;-2.224;2023-05-29T00:03:23;102509.00;;;12.90;59.57
46682;BME280;34101;53.430;-2.224;2023-05-29T00:05:51;102509.70;;;12.90;59.55
46682;BME280;34101;53.430;-2.224;2023-05-29T00:08:19;102512.03;;;12.89;59.81
46682;BME280;34101;53.430;-2.224;2023-05-29T00:10:47;102514.99;;;12.89;59.85
46682;BME280;34101;53.430;-2.224;2023-05-29T00:13:16;102522.31;;;12.86;59.96
46682;BME280;34101;53.430;-2.224;2023-05-29T00:15:43;102519.85;;;12.84;60.09
46682;BME280;34101;53.430;-2.224;2023-05-29T00:18:10;102521.73;;;12.86;59.94
46682;BME280;34101;53.430;-2.224;2023-05-29T00:20:38;102523.72;;;12.82;60.06
46682;BME280;34101;53.430;-2.224;2023-05-29T00:23:05;102524.69;;;12.83;60.08
46682;BME280;34101;53.430;-2.224;2023-05-29T00:25:33;102522.77;;;12.82;59.89
46682;BME280;34101;53.430;-2.224;2023-05-29T00:28:00;102520.45;;;12.79;59.97
46682;BME280;34101;53.430;-2.224;2023-05-29T00:30:27;102519.17;;;12.78;60.02
46682;BME280;34101;53.430;-2.224;2023-05-29T00:33:00;102520.76;;;12.77;60.01
46682;BME280;34101;53.430;-2.224;2023-05-29T00:35:27;102525.85;;;12.74;59.99
46682;BME280;34101;53.430;-2.224;2023-05-29T00:37:55;102524.11;;;12.71;60.01
46682;BME280;34101;53.430;-2.224;2023-05-29T01:42:48;102546.61;;;12.12;61.59
46682;BME280;34101;53.430;-2.224;2023-05-29T02:56:31;102549.42;;;11.37;64.51
46682;BME280;34101;53.430;-2.224;2023-05-29T02:59:04;102554.18;;;11.41;64.65
46682;BME280;34101;53.430;-2.224;2023-05-29T03:01:31;102551.28;;;11.40;64.52
46682;BME280;34101;53.430;-2.224;2023-05-29T03:03:58;102551.45;;;11.41;64.51
46682;BME280;34101;53.430;-2.224;2023-05-29T03:06:24;102552.28;;;11.40;64.60
46682;BME280;34101;53.430;-2.224;2023-05-29T03:08:51;102553.57;;;11.46;64.58
46682;BME280;34101;53.430;-2.224;2023-05-29T03:14:58;102556.25;;;11.41;64.57
46682;BME280;34101;53.430;-2.224;2023-05-29T03:17:25;102553.88;;;11.37;64.59
46682;BME280;34101;53.430;-2.224;2023-05-29T03:19:51;102552.07;;;11.36;64.63
46682;BME280;34101;53.430;-2.224;2023-05-29T03:22:18;102555.16;;;11.37;64.63
46682;BME280;34101;53.430;-2.224;2023-05-29T03:24:44;102555.74;;;11.34;64.73
46682;BME280;34101;53.430;-2.224;2023-05-29T03:27:11;102555.84;;;11.31;64.72
46682;BME280;34101;53.430;-2.224;2023-05-29T03:29:38;102557.22;;;11.31;64.86
46682;BME280;34101;53.430;-2.224;2023-05-29T03:32:05;102554.12;;;11.33;64.77
46682;BME280;34101;53.430;-2.224;2023-05-29T03:34:32;102552.07;;;11.35;64.67
46682;BME280;34101;53.430;-2.224;2023-05-29T03:36:58;102552.95;;;11.31;64.68
46682;BME280;34101;53.430;-2.224;2023-05-29T03:39:26;102552.00;;;11.26;64.89
46682;BME280;34101;53.430;-2.224;2023-05-29T03:41:53;102551.79;;;11.18;64.94
46682;BME280;34101;53.430;-2.224;2023-05-29T03:44:21;102553.79;;;11.17;64.97
46682;BME280;34101;53.430;-2.224;2023-05-29T03:46:49;102553.67;;;11.15;64.71
46682;BME280;34101;53.430;-2.224;2023-05-29T03:49:22;102558.48;;;11.08;65.16
46682;BME280;34101;53.430;-2.224;2023-05-29T03:51:50;102555.79;;;11.04;65.35
46682;BME280;34101;53.430;-2.224;2023-05-29T03:54:17;102562.05;;;11.02;65.41
46682;BME280;34101;53.430;-2.224;2023-05-29T03:56:45;102559.94;;;11.01;65.44
46682;BME280;34101;53.430;-2.224;2023-05-29T03:59:13;102558.60;;;11.01;65.54
46682;BME280;34101;53.430;-2.224;2023-05-29T04:01:41;102560.73;;;11.01;65.69
46682;BME280;34101;53.430;-2.224;2023-05-29T04:04:08;102563.14;;;10.98;65.84
46682;BME280;34101;53.430;-2.224;2023-05-29T04:06:37;102560.78;;;10.94;66.12
46682;BME280;34101;53.430;-2.224;2023-05-29T04:09:04;102561.06;;;10.93;66.21
46682;BME280;34101;53.430;-2.224;2023-05-29T04:11:31;102564.01;;;10.94;66.33
46682;BME280;34101;53.430;-2.224;2023-05-29T04:13:59;102568.46;;;10.90;66.36
46682;BME280;34101;53.430;-2.224;2023-05-29T04:16:27;102565.11;;;10.88;66.50
46682;BME280;34101;53.430;-2.224;2023-05-29T04:18:55;102570.71;;;10.86;66.55
46682;BME280;34101;53.430;-2.224;2023-05-29T04:21:22;102573.60;;;10.84;66.71
46682;BME280;34101;53.430;-2.224;2023-05-29T04:23:50;102571.83;;;10.83;67.00
46682;BME280;34101;53.430;-2.224;2023-05-29T04:26:17;102571.78;;;10.91;66.83
46682;BME280;34101;53.430;-2.224;2023-05-29T04:28:46;102574.74;;;10.93;66.77
46682;BME280;34101;53.430;-2.224;2023-05-29T04:31:14;102574.97;;;10.92;66.95
46682;BME280;34101;53.430;-2.224;2023-05-29T04:33:41;102579.35;;;10.94;67.00
46682;BME280;34101;53.430;-2.224;2023-05-29T04:36:09;102580.91;;;10.96;67.03
46682;BME280;34101;53.430;-2.224;2023-05-29T04:38:37;102578.97;;;10.99;67.13
46682;BME280;34101;53.430;-2.224;2023-05-29T04:41:05;102577.98;;;11.04;67.21
46682;BME280;34101;53.430;-2.224;2023-05-29T04:43:32;102583.56;;;11.14;67.02
46682;BME280;34101;53.430;-2.224;2023-05-29T04:45:59;102584.46;;;11.20;66.94
46682;BME280;34101;53.430;-2.224;2023-05-29T04:48:27;102587.42;;;11.23;67.00
46682;BME280;34101;53.430;-2.224;2023-05-29T04:50:54;102588.54;;;11.29;66.93
46682;BME280;34101;53.430;-2.224;2023-05-29T04:53:22;102586.63;;;11.36;66.87
46682;BME280;34101;53.430;-2.224;2023-05-29T04:55:49;102587.52;;;11.42;66.81
46682;BME280;34101;53.430;-2.224;2023-05-29T04:58:17;102587.55;;;11.47;66.75
46682;BME280;34101;53.430;-2.224;2023-05-29T05:00:44;102585.97;;;11.49;66.87
46682;BME280;34101;53.430;-2.224;2023-05-29T05:03:11;102585.57;;;11.57;66.67
46682;BME280;34101;53.430;-2.224;2023-05-29T05:05:44;102588.36;;;11.63;66.57
46682;BME280;34101;53.430;-2.224;2023-05-29T05:08:11;102589.01;;;11.68;66.33
46682;BME280;34101;53.430;-2.224;2023-05-29T05:10:39;102592.10;;;11.74;66.24
46682;BME280;34101;53.430;-2.224;2023-05-29T05:13:06;102592.76;;;11.76;66.15
46682;BME280;34101;53.430;-2.224;2023-05-29T05:15:33;102591.53;;;11.79;66.16
46682;BME280;34101;53.430;-2.224;2023-05-29T05:18:01;102597.82;;;11.82;66.10
46682;BME280;34101;53.430;-2.224;2023-05-29T05:20:28;102597.34;;;11.84;66.10
46682;BME280;34101;53.430;-2.224;2023-05-29T05:22:55;102600.59;;;11.90;65.96
46682;BME280;34101;53.430;-2.224;2023-05-29T05:25:23;102602.04;;;11.95;65.87
46682;BME280;34101;53.430;-2.224;2023-05-29T05:27:50;102600.58;;;12.01;65.77
46682;BME280;34101;53.430;-2.224;2023-05-29T05:30:18;102601.69;;;12.07;65.66
46682;BME280;34101;53.430;-2.224;2023-05-29T05:32:45;102601.78;;;12.13;65.51
46682;BME280;34101;53.430;-2.224;2023-05-29T05:35:13;102603.77;;;12.20;65.25
46682;BME280;34101;53.430;-2.224;2023-05-29T05:37:41;102607.89;;;12.26;64.84
46682;BME280;34101;53.430;-2.224;2023-05-29T05:40:09;102611.49;;;12.32;64.69
46682;BME280;34101;53.430;-2.224;2023-05-29T05:42:37;102612.68;;;12.35;64.44
46682;BME280;34101;53.430;-2.224;2023-05-29T05:45:06;102613.97;;;12.41;64.01
46682;BME280;34101;53.430;-2.224;2023-05-29T05:47:33;102613.98;;;12.50;64.01
46682;BME280;34101;53.430;-2.224;2023-05-29T05:50:00;102615.97;;;12.58;63.48
46682;BME280;34101;53.430;-2.224;2023-05-29T05:52:28;102611.44;;;12.64;63.03
46682;BME280;34101;53.430;-2.224;2023-05-29T05:54:55;102612.61;;;12.72;62.75
46682;BME280;34101;53.430;-2.224;2023-05-29T05:57:28;102614.09;;;12.78;62.25
46682;BME280;34101;53.430;-2.224;2023-05-29T05:59:56;102612.07;;;12.84;62.10
46682;BME280;34101;53.430;-2.224;2023-05-29T06:02:23;102613.02;;;12.87;61.22
46682;BME280;34101;53.430;-2.224;2023-05-29T06:04:51;102614.65;;;12.88;61.42
46682;BME280;34101;53.430;-2.224;2023-05-29T06:07:18;102614.14;;;12.93;61.23
46682;BME280;34101;53.430;-2.224;2023-05-29T06:09:45;102615.94;;;12.99;60.25
46682;BME280;34101;53.430;-2.224;2023-05-29T06:12:13;102615.72;;;12.99;59.73
46682;BME280;34101;53.430;-2.224;2023-05-29T06:14:41;102618.54;;;13.07;59.46
46682;BME280;34101;53.430;-2.224;2023-05-29T06:17:08;102618.30;;;13.10;59.39
46682;BME280;34101;53.430;-2.224;2023-05-29T06:19:36;102618.19;;;13.16;59.11
46682;BME280;34101;53.430;-2.224;2023-05-29T06:22:03;102619.34;;;13.22;58.24
46682;BME280;34101;53.430;-2.224;2023-05-29T06:24:31;102618.77;;;13.28;58.25
46682;BME280;34101;53.430;-2.224;2023-05-29T06:26:58;102622.98;;;13.30;57.51
46682;BME280;34101;53.430;-2.224;2023-05-29T06:29:25;102621.38;;;13.38;56.72
46682;BME280;34101;53.430;-2.224;2023-05-29T06:31:53;102622.81;;;13.41;56.23
46682;BME280;34101;53.430;-2.224;2023-05-29T06:34:20;102620.83;;;13.49;56.49
46682;BME280;34101;53.430;-2.224;2023-05-29T06:36:48;102622.41;;;13.50;55.23
46682;BME280;34101;53.430;-2.224;2023-05-29T06:39:15;102628.21;;;13.58;55.25
46682;BME280;34101;53.430;-2.224;2023-05-29T06:41:43;102628.39;;;13.64;54.25
46682;BME280;34101;53.430;-2.224;2023-05-29T06:44:10;102631.20;;;13.76;54.99
46682;BME280;34101;53.430;-2.224;2023-05-29T06:46:38;102634.95;;;13.98;54.44
46682;BME280;34101;53.430;-2.224;2023-05-29T06:49:05;102637.52;;;14.22;54.06
46682;BME280;34101;53.430;-2.224;2023-05-29T06:51:33;102636.82;;;14.45;53.51
46682;BME280;34101;53.430;-2.224;2023-05-29T06:54:01;102639.15;;;14.69;52.93
46682;BME280;34101;53.430;-2.224;2023-05-29T06:56:28;102638.14;;;14.88;51.76
46682;BME280;34101;53.430;-2.224;2023-05-29T06:58:56;102641.07;;;15.09;51.35
46682;BME280;34101;53.430;-2.224;2023-05-29T07:01:24;102643.61;;;15.28;51.01
46682;BME280;34101;53.430;-2.224;2023-05-29T07:03:52;102645.93;;;15.29;49.86
46682;BME280;34101;53.430;-2.224;2023-05-29T07:06:20;102648.69;;;15.32;47.52
46682;BME280;34101;53.430;-2.224;2023-05-29T07:08:47;102648.04;;;15.33;46.77
46682;BME280;34101;53.430;-2.224;2023-05-29T07:11:15;102645.13;;;15.50;46.24
46682;BME280;34101;53.430;-2.224;2023-05-29T07:13:42;102643.88;;;15.59;45.77
46682;BME280;34101;53.430;-2.224;2023-05-29T07:16:09;102640.33;;;15.68;45.46
46682;BME280;34101;53.430;-2.224;2023-05-29T07:18:37;102644.48;;;15.75;45.31
46682;BME280;34101;53.430;-2.224;2023-05-29T07:21:05;102635.82;;;15.85;44.62
46682;BME280;34101;53.430;-2.224;2023-05-29T07:23:33;102634.85;;;16.00;44.63
46682;BME280;34101;53.430;-2.224;2023-05-29T07:26:00;102626.53;;;16.15;43.75
46682;BME280;34101;53.430;-2.224;2023-05-29T07:28:27;102630.52;;;16.10;43.54
46682;BME280;34101;53.430;-2.224;2023-05-29T07:30:55;102634.10;;;16.11;43.75
46682;BME280;34101;53.430;-2.224;2023-05-29T07:33:22;102631.43;;;16.18;43.61
46682;BME280;34101;53.430;-2.224;2023-05-29T07:35:50;102632.48;;;16.29;43.58
46682;BME280;34101;53.430;-2.224;2023-05-29T07:38:17;102636.39;;;16.64;42.95
46682;BME280;34101;53.430;-2.224;2023-05-29T07:40:45;102631.21;;;17.25;40.85
46682;BME280;34101;53.430;-2.224;2023-05-29T07:43:12;102632.27;;;17.77;39.72
46682;BME280;34101;53.430;-2.224;2023-05-29T07:45:39;102636.81;;;18.30;38.80
46682;BME280;34101;53.430;-2.224;2023-05-29T07:48:07;102632.79;;;18.92;37.36
46682;BME280;34101;53.430;-2.224;2023-05-29T07:50:35;102632.37;;;19.32;36.52
46682;BME280;34101;53.430;-2.224;2023-05-29T07:53:03;102628.51;;;19.99;35.57
46682;BME280;34101;53.430;-2.224;2023-05-29T07:55:30;102633.72;;;20.35;35.18
46682;BME280;34101;53.430;-2.224;2023-05-29T07:57:58;102632.21;;;20.80;34.01
46682;BME280;34101;53.430;-2.224;2023-05-29T08:00:25;102632.48;;;21.28;32.73
46682;BME280;34101;53.430;-2.224;2023-05-29T08:02:53;102630.73;;;21.63;31.99
46682;BME280;34101;53.430;-2.224;2023-05-29T08:05:20;102635.65;;;21.75;31.38
46682;BME280;34101;53.430;-2.224;2023-05-29T08:07:52;102638.95;;;21.77;31.74
46682;BME280;34101;53.430;-2.224;2023-05-29T08:10:20;102641.84;;;21.92;31.26
46682;BME280;34101;53.430;-2.224;2023-05-29T08:12:47;102645.33;;;21.75;31.31
46682;BME280;34101;53.430;-2.224;2023-05-29T08:15:15;102651.25;;;21.70;31.57
46682;BME280;34101;53.430;-2.224;2023-05-29T08:17:42;102658.39;;;21.25;32.10
46682;BME280;34101;53.430;-2.224;2023-05-29T08:20:10;102660.45;;;21.22;31.89
46682;BME280;34101;53.430;-2.224;2023-05-29T08:22:38;102667.82;;;21.22;31.70
46682;BME280;34101;53.430;-2.224;2023-05-29T08:25:06;102661.52;;;21.51;31.47
46682;BME280;34101;53.430;-2.224;2023-05-29T08:27:34;102664.37;;;21.56;31.39
46682;BME280;34101;53.430;-2.224;2023-05-29T08:30:02;102665.55;;;21.73;31.23
46682;BME280;34101;53.430;-2.224;2023-05-29T08:32:30;102663.23;;;22.16;30.97
46682;BME280;34101;53.430;-2.224;2023-05-29T08:34:57;102660.26;;;22.57;30.04
46682;BME280;34101;53.430;-2.224;2023-05-29T08:37:25;102659.98;;;23.03;29.39
46682;BME280;34101;53.430;-2.224;2023-05-29T08:39:52;102658.00;;;23.24;29.37
46682;BME280;34101;53.430;-2.224;2023-05-29T08:42:23;102661.59;;;23.69;28.38
46682;BME280;34101;53.430;-2.224;2023-05-29T08:44:56;102659.78;;;24.01;27.91
46682;BME280;34101;53.430;-2.224;2023-05-29T08:47:27;102662.74;;;24.14;27.05
46682;BME280;34101;53.430;-2.224;2023-05-29T08:49:54;102663.06;;;23.89;27.52
46682;BME280;34101;53.430;-2.224;2023-05-29T08:52:23;102663.90;;;23.90;27.49
46682;BME280;34101;53.430;-2.224;2023-05-29T08:54:51;102667.67;;;23.99;27.50
46682;BME280;34101;53.430;-2.224;2023-05-29T08:57:20;102657.17;;;24.24;26.95
46682;BME280;34101;53.430;-2.224;2023-05-29T08:59:52;102665.57;;;24.47;26.41
46682;BME280;34101;53.430;-2.224;2023-05-29T09:02:20;102659.11;;;24.09;26.68
46682;BME280;34101;53.430;-2.224;2023-05-29T09:04:48;102658.81;;;24.06;27.08
46682;BME280;34101;53.430;-2.224;2023-05-29T09:07:16;102657.72;;;24.40;26.38
46682;BME280;34101;53.430;-2.224;2023-05-29T09:09:45;102648.87;;;24.58;26.00
46682;BME280;34101;53.430;-2.224;2023-05-29T09:12:13;102650.48;;;24.64;26.02
46682;BME280;34101;53.430;-2.224;2023-05-29T09:14:46;102651.62;;;24.71;25.63
46682;BME280;34101;53.430;-2.224;2023-05-29T09:17:13;102642.43;;;24.30;26.43
46682;BME280;34101;53.430;-2.224;2023-05-29T09:19:41;102636.31;;;24.82;25.82
46682;BME280;34101;53.430;-2.224;2023-05-29T09:22:10;102642.74;;;24.69;26.14
46682;BME280;34101;53.430;-2.224;2023-05-29T09:24:39;102642.17;;;24.75;26.26
46682;BME280;34101;53.430;-2.224;2023-05-29T09:27:07;102635.99;;;25.09;26.09
46682;BME280;34101;53.430;-2.224;2023-05-29T09:29:39;102633.81;;;25.55;25.04
46682;BME280;34101;53.430;-2.224;2023-05-29T09:32:07;102634.85;;;25.69;24.92
46682;BME280;34101;53.430;-2.224;2023-05-29T09:34:36;102636.48;;;26.19;24.07
46682;BME280;34101;53.430;-2.224;2023-05-29T09:37:06;102636.18;;;26.24;24.56
46682;BME280;34101;53.430;-2.224;2023-05-29T09:39:35;102635.23;;;26.46;23.63
46682;BME280;34101;53.430;-2.224;2023-05-29T09:42:11;102643.03;;;26.28;23.87
46682;BME280;34101;53.430;-2.224;2023-05-29T09:44:40;102644.49;;;25.81;23.72
46682;BME280;34101;53.430;-2.224;2023-05-29T09:47:08;102640.59;;;25.82;24.67
46682;BME280;34101;53.430;-2.224;2023-05-29T09:49:41;102632.17;;;26.11;24.09
46682;BME280;34101;53.430;-2.224;2023-05-29T09:52:10;102635.96;;;25.98;23.98
46682;BME280;34101;53.430;-2.224;2023-05-29T09:54:38;102631.62;;;25.48;24.00
46682;BME280;34101;53.430;-2.224;2023-05-29T09:57:07;102627.67;;;24.74;24.91
46682;BME280;34101;53.430;-2.224;2023-05-29T09:59:37;102628.53;;;24.76;25.50
46682;BME280;34101;53.430;-2.224;2023-05-29T10:02:05;102624.09;;;25.15;25.61
46682;BME280;34101;53.430;-2.224;2023-05-29T10:04:32;102619.80;;;25.22;24.94
46682;BME280;34101;53.430;-2.224;2023-05-29T10:07:05;102617.10;;;25.34;25.35
46682;BME280;34101;53.430;-2.224;2023-05-29T10:09:41;102616.52;;;25.74;25.04
46682;BME280;34101;53.430;-2.224;2023-05-29T10:12:11;102607.68;;;26.21;23.84
46682;BME280;34101;53.430;-2.224;2023-05-29T10:14:40;102609.71;;;26.36;23.87
46682;BME280;34101;53.430;-2.224;2023-05-29T10:17:09;102605.10;;;26.32;23.73
46682;BME280;34101;53.430;-2.224;2023-05-29T10:19:39;102606.82;;;26.28;23.33
46682;BME280;34101;53.430;-2.224;2023-05-29T10:22:07;102604.62;;;26.30;23.88
46682;BME280;34101;53.430;-2.224;2023-05-29T10:24:37;102605.22;;;26.44;23.05
46682;BME280;34101;53.430;-2.224;2023-05-29T10:27:06;102608.71;;;26.43;23.92
46682;BME280;34101;53.430;-2.224;2023-05-29T10:29:39;102602.70;;;26.57;23.32
46682;BME280;34101;53.430;-2.224;2023-05-29T10:32:21;102604.24;;;27.19;22.83
46682;BME280;34101;53.430;-2.224;2023-05-29T10:34:57;102612.31;;;27.38;22.67
46682;BME280;34101;53.430;-2.224;2023-05-29T10:37:33;102604.24;;;26.85;22.83
46682;BME280;34101;53.430;-2.224;2023-05-29T10:40:05;102602.42;;;26.39;24.22
46682;BME280;34101;53.430;-2.224;2023-05-29T10:42:42;102602.74;;;26.26;23.59
46682;BME280;34101;53.430;-2.224;2023-05-29T10:45:11;102606.90;;;25.80;25.09
46682;BME280;34101;53.430;-2.224;2023-05-29T10:48:56;102602.70;;;26.33;24.17
46682;BME280;34101;53.430;-2.224;2023-05-29T10:51:27;102604.97;;;26.58;23.97
46682;BME280;34101;53.430;-2.224;2023-05-29T10:53:55;102598.28;;;26.20;23.80
46682;BME280;34101;53.430;-2.224;2023-05-29T10:56:27;102591.45;;;25.77;23.84
46682;BME280;34101;53.430;-2.224;2023-05-29T10:59:00;102601.54;;;25.70;25.00
46682;BME280;34101;53.430;-2.224;2023-05-29T11:01:28;102605.32;;;26.26;24.32
46682;BME280;34101;53.430;-2.224;2023-05-29T11:04:30;102599.87;;;26.61;23.77
46682;BME280;34101;53.430;-2.224;2023-05-29T11:06:58;102595.86;;;26.98;23.33
46682;BME280;34101;53.430;-2.224;2023-05-29T11:09:28;102589.82;;;26.72;22.83
46682;BME280;34101;53.430;-2.224;2023-05-29T11:12:27;102596.68;;;25.32;24.33
46682;BME280;34101;53.430;-2.224;2023-05-29T11:14:56;102593.63;;;24.94;25.29
46682;BME280;34101;53.430;-2.224;2023-05-29T11:17:34;102591.98;;;24.43;26.18
46682;BME280;34101;53.430;-2.224;2023-05-29T11:20:24;102597.22;;;23.89;27.31
46682;BME280;34101;53.430;-2.224;2023-05-29T11:23:02;102595.12;;;23.90;26.72
46682;BME280;34101;53.430;-2.224;2023-05-29T11:25:34;102595.58;;;23.47;27.77
46682;BME280;34101;53.430;-2.224;2023-05-29T11:28:03;102593.22;;;23.38;27.91
46682;BME280;34101;53.430;-2.224;2023-05-29T11:30:30;102597.78;;;23.71;27.86
46682;BME280;34101;53.430;-2.224;2023-05-29T11:33:01;102594.45;;;23.97;27.53
46682;BME280;34101;53.430;-2.224;2023-05-29T11:35:34;102586.23;;;24.17;27.30
46682;BME280;34101;53.430;-2.224;2023-05-29T11:38:07;102588.31;;;24.26;26.98
46682;BME280;34101;53.430;-2.224;2023-05-29T11:40:36;102583.63;;;24.10;27.02
46682;BME280;34101;53.430;-2.224;2023-05-29T11:43:04;102591.76;;;23.92;27.90
46682;BME280;34101;53.430;-2.224;2023-05-29T11:45:33;102585.98;;;24.43;27.60
46682;BME280;34101;53.430;-2.224;2023-05-29T11:48:02;102584.85;;;24.91;26.24
46682;BME280;34101;53.430;-2.224;2023-05-29T11:50:31;102587.10;;;24.42;25.76
46682;BME280;34101;53.430;-2.224;2023-05-29T11:52:59;102584.17;;;24.29;26.46
46682;BME280;34101;53.430;-2.224;2023-05-29T11:55:28;102580.96;;;24.62;25.97
46682;BME280;34101;53.430;-2.224;2023-05-29T11:57:58;102576.49;;;24.83;25.48
46682;BME280;34101;53.430;-2.224;2023-05-29T12:00:31;102585.73;;;24.77;25.54
46682;BME280;34101;53.430;-2.224;2023-05-29T12:02:59;102582.25;;;24.75;25.02
46682;BME280;34101;53.430;-2.224;2023-05-29T12:05:27;102577.13;;;25.15;25.13
46682;BME280;34101;53.430;-2.224;2023-05-29T12:07:55;102574.44;;;25.67;25.10
46682;BME280;34101;53.430;-2.224;2023-05-29T12:10:23;102570.50;;;25.64;24.98
46682;BME280;34101;53.430;-2.224;2023-05-29T12:12:52;102579.62;;;25.39;24.50
46682;BME280;34101;53.430;-2.224;2023-05-29T12:15:21;102571.00;;;24.99;25.71
46682;BME280;34101;53.430;-2.224;2023-05-29T12:17:50;102578.52;;;24.77;26.08
46682;BME280;34101;53.430;-2.224;2023-05-29T12:20:19;102578.70;;;24.34;25.30
46682;BME280;34101;53.430;-2.224;2023-05-29T12:22:51;102573.91;;;24.04;26.15
46682;BME280;34101;53.430;-2.224;2023-05-29T12:25:20;102578.82;;;23.95;25.99
46682;BME280;34101;53.430;-2.224;2023-05-29T12:27:48;102576.37;;;23.90;26.79
46682;BME280;34101;53.430;-2.224;2023-05-29T12:30:21;102572.92;;;23.51;26.54
46682;BME280;34101;53.430;-2.224;2023-05-29T12:32:49;102565.19;;;23.33;26.61
46682;BME280;34101;53.430;-2.224;2023-05-29T12:35:18;102562.76;;;22.84;27.37
46682;BME280;34101;53.430;-2.224;2023-05-29T12:37:47;102563.07;;;22.95;27.96
46682;BME280;34101;53.430;-2.224;2023-05-29T12:40:16;102564.21;;;22.77;27.72
46682;BME280;34101;53.430;-2.224;2023-05-29T12:42:43;102558.90;;;22.81;28.42
46682;BME280;34101;53.430;-2.224;2023-05-29T12:45:11;102556.96;;;23.19;28.29
46682;BME280;34101;53.430;-2.224;2023-05-29T12:47:45;102558.67;;;23.37;27.40
46682;BME280;34101;53.430;-2.224;2023-05-29T12:50:23;102558.53;;;23.15;26.83
46682;BME280;34101;53.430;-2.224;2023-05-29T12:52:56;102555.87;;;23.05;27.37
46682;BME280;34101;53.430;-2.224;2023-05-29T12:55:25;102558.23;;;22.85;28.36
46682;BME280;34101;53.430;-2.224;2023-05-29T12:57:54;102557.65;;;23.00;29.03
46682;BME280;34101;53.430;-2.224;2023-05-29T13:00:22;102557.35;;;23.04;27.82
46682;BME280;34101;53.430;-2.224;2023-05-29T13:02:51;102551.47;;;22.85;28.13
46682;BME280;34101;53.430;-2.224;2023-05-29T13:05:19;102554.74;;;23.11;28.30
46682;BME280;34101;53.430;-2.224;2023-05-29T13:07:47;102545.89;;;23.31;28.16
46682;BME280;34101;53.430;-2.224;2023-05-29T13:10:15;102550.84;;;23.20;27.98
46682;BME280;34101;53.430;-2.224;2023-05-29T13:12:44;102557.75;;;23.26;27.85
46682;BME280;34101;53.430;-2.224;2023-05-29T13:15:13;102559.16;;;23.17;28.32
46682;BME280;34101;53.430;-2.224;2023-05-29T13:17:41;102555.81;;;23.23;28.52
46682;BME280;34101;53.430;-2.224;2023-05-29T13:20:10;102555.63;;;23.45;28.35
46682;BME280;34101;53.430;-2.224;2023-05-29T13:22:38;102563.39;;;23.46;27.54
46682;BME280;34101;53.430;-2.224;2023-05-29T13:25:07;102564.09;;;23.66;27.27
46682;BME280;34101;53.430;-2.224;2023-05-29T13:27:37;102566.99;;;23.70;27.17
46682;BME280;34101;53.430;-2.224;2023-05-29T13:30:06;102565.06;;;23.83;27.58
46682;BME280;34101;53.430;-2.224;2023-05-29T13:32:33;102562.68;;;23.72;27.61
46682;BME280;34101;53.430;-2.224;2023-05-29T13:35:01;102561.86;;;23.76;27.65
46682;BME280;34101;53.430;-2.224;2023-05-29T13:37:35;102558.53;;;23.44;28.25
46682;BME280;34101;53.430;-2.224;2023-05-29T13:40:03;102563.71;;;23.35;27.35
46682;BME280;34101;53.430;-2.224;2023-05-29T13:42:31;102561.67;;;23.53;27.23
46682;BME280;34101;53.430;-2.224;2023-05-29T13:44:58;102561.15;;;23.67;27.73
46682;BME280;34101;53.430;-2.224;2023-05-29T13:47:26;102566.53;;;23.65;27.60
46682;BME280;34101;53.430;-2.224;2023-05-29T13:49:53;102561.55;;;23.65;27.57
46682;BME280;34101;53.430;-2.224;2023-05-29T13:52:21;102561.21;;;23.72;27.80
46682;BME280;34101;53.430;-2.224;2023-05-29T13:54:48;102564.14;;;23.76;27.92
46682;BME280;34101;53.430;-2.224;2023-05-29T13:57:16;102563.59;;;23.66;27.57
46682;BME280;34101;53.430;-2.224;2023-05-29T13:59:43;102561.46;;;23.84;28.07
46682;BME280;34101;53.430;-2.224;2023-05-29T14:02:11;102567.95;;;23.72;27.78
46682;BME280;34101;53.430;-2.224;2023-05-29T14:04:39;102570.44;;;23.57;28.07
46682;BME280;34101;53.430;-2.224;2023-05-29T14:07:07;102566.56;;;23.80;27.57
46682;BME280;34101;53.430;-2.224;2023-05-29T14:09:35;102568.42;;;23.48;28.12
46682;BME280;34101;53.430;-2.224;2023-05-29T14:12:03;102568.96;;;23.27;28.24
46682;BME280;34101;53.430;-2.224;2023-05-29T14:14:32;102572.85;;;23.43;28.09
46682;BME280;34101;53.430;-2.224;2023-05-29T14:17:00;102569.30;;;23.38;27.96
46682;BME280;34101;53.430;-2.224;2023-05-29T14:19:27;102561.25;;;23.10;28.30
46682;BME280;34101;53.430;-2.224;2023-05-29T14:21:54;102561.18;;;23.03;29.04
46682;BME280;34101;53.430;-2.224;2023-05-29T14:24:22;102561.70;;;22.91;28.91
46682;BME280;34101;53.430;-2.224;2023-05-29T14:26:49;102561.93;;;22.88;29.06
46682;BME280;34101;53.430;-2.224;2023-05-29T14:29:17;102564.58;;;22.86;29.45
46682;BME280;34101;53.430;-2.224;2023-05-29T14:31:44;102558.25;;;22.89;29.15
46682;BME280;34101;53.430;-2.224;2023-05-29T14:34:12;102561.60;;;23.00;28.47
46682;BME280;34101;53.430;-2.224;2023-05-29T14:36:39;102560.14;;;23.09;28.88
46682;BME280;34101;53.430;-2.224;2023-05-29T14:39:07;102555.26;;;23.28;28.48
46682;BME280;34101;53.430;-2.224;2023-05-29T14:41:34;102558.73;;;23.43;29.25
46682;BME280;34101;53.430;-2.224;2023-05-29T14:44:02;102556.96;;;23.56;27.53
46682;BME280;34101;53.430;-2.224;2023-05-29T14:46:30;102552.19;;;23.53;28.09
46682;BME280;34101;53.430;-2.224;2023-05-29T14:48:58;102552.89;;;23.68;27.16
46682;BME280;34101;53.430;-2.224;2023-05-29T14:51:26;102546.15;;;23.63;26.48
46682;BME280;34101;53.430;-2.224;2023-05-29T14:53:54;102552.25;;;23.62;27.13
46682;BME280;34101;53.430;-2.224;2023-05-29T14:56:21;102550.35;;;23.68;27.35
46682;BME280;34101;53.430;-2.224;2023-05-29T14:58:49;102544.38;;;23.75;27.76
46682;BME280;34101;53.430;-2.224;2023-05-29T15:01:17;102544.77;;;23.89;27.76
46682;BME280;34101;53.430;-2.224;2023-05-29T15:03:45;102544.83;;;24.03;27.71
46682;BME280;34101;53.430;-2.224;2023-05-29T15:06:12;102551.72;;;24.02;26.83